EDDBEDDC

Guest
Details From EDDB - Berlin Schoenefeld
To EDDC - Dresden
Flight Number -
Tags Generated
Created
Modified
Stats Distance 76 nm / 141 km
Max Altitude 0 ft / 0 m
Waypoints 2
Social Downloads 3
Likes 0
Share VATSIM

Download

Looking for another format? Having issues loading an existing format? Contact us
Advertisement - Login to hide

Notes

Generated

Route

EDDB EDDC

ID Type Via Altitude Latitude Longitude Leg Dist Tot Dist Heading (true) Name
O EDDB APT - 0 ft / 0 m 52.38012˚ 13.51714˚ - 0 nm - Berlin Schoenefeld
O EDDC APT - 0 ft / 0 m 51.12425˚ 13.75544˚ 75 nm 75 nm 173° / 173° -

Altitude Profile

Advertisement - Login to hide

EDDB

Details ICAO EDDB (BER)
Name Berlin Schoenefeld
Region Germany - Civil
Timezone Europe/Berlin (UTC+1.0)
Stats Elevation 157 ft / 48 m (AMSL)
Location 52.378541° 13.520629°
Runways 2
Magnetic Variation 3.806° E

METAR

EDDB 110550Z 24012KT 9999 BKN037 03/00 Q0985 R25/D TEMPO 25015G25KT

Decode

TAF

TAF TAF EDDB 110500Z 1106/1206 23010KT 9999 BKN025 PROB30 TEMPO 1106/1109 BKN012 BECMG 1110/1114 09007KT TEMPO 1116/1119 4000 -RADZ BKN008 BECMG 1120/1123 18007KT BECMG 1203/1206 21015G30KT

Decode

Departure Runways

ID Width Length Bearing (true) Bearing (mag) Surface Threshold Offset Overrun Length
07 148 ft / 45 m 9,817 ft / 2,992 m 68.75° 64.94° Asphalt 0 ft / 0 m 984 ft / 300 m
07L 148 ft / 45 m 8,867 ft / 2,703 m 68.77° 64.96° Concrete 0 ft / 0 m 525 ft / 160 m
25 148 ft / 45 m 9,817 ft / 2,992 m 248.78° 244.97° Asphalt 0 ft / 0 m 984 ft / 300 m
25R 148 ft / 45 m 8,867 ft / 2,703 m 248.80° 244.99° Concrete 0 ft / 0 m 984 ft / 300 m

EDDC

Details ICAO EDDC (DRS)
Name Dresden
Region Germany - Civil
Timezone Europe/Berlin (UTC+1.0)
Stats Elevation 752 ft / 229 m (AMSL)
Location 51.134366° 13.768065°
Runways 1
Magnetic Variation 3.798° E

METAR

EDDC 110550Z 20013KT 9999 FEW030 BKN130 05/02 Q0987 TEMPO 20015G25KT

Decode

TAF

TAF EDDC 110500Z 1106/1206 20015G25KT 9999 SCT030 BECMG 1106/1109 17010KT BECMG 1203/1206 22015G30KT

Decode

Destination Runways

ID Width Length Bearing (true) Bearing (mag) Surface Threshold Offset Overrun Length
04 197 ft / 60 m 9,348 ft / 2,849 m 40.74° 36.94° Concrete 0 ft / 0 m 0 ft / 0 m
22 197 ft / 60 m 9,348 ft / 2,849 m 220.76° 216.96° Concrete 984 ft / 300 m 0 ft / 0 m

Approach Navaids

Runway Type Ident Frequency Range Bearing (true) Bearing (mag) Slope Elevation
04 Localiser IDRE 110.50 MHz 18 nm / 33 km 40.83° 37.03° - 703 ft / 214 m (AMSL)
04 Glidescope IDRE 110.50 MHz 10 nm / 19 km 40.83° 37.03° 3.00° 755 ft / 230 m (AMSL)
22 Localiser IDRW 109.70 MHz 18 nm / 33 km 220.81° 217.01° - 755 ft / 230 m (AMSL)
22 Glidescope IDRW 109.70 MHz 10 nm / 19 km 220.81° 217.01° 3.00° 703 ft / 214 m (AMSL)

Popular Alternatives